MMMA/MAM METAR and TAF weather

Enter ICAO airport designator
Station Type Date Time Source
MMMA METAR 2021/05/15 00:47 UTC NOAA

MMMA 150047Z 10008KT 8SM FEW015 SCT080 BKN200 25/25 A3006 RMK 8/138


Station Type Date Time Source
MMMA Decoded METAR 2021/05/15 00:47 UTC NOAA

Matamoros International , Mexico (MMMA) 25-46N 097-32W
May 14, 2021 - 08:47 PM EDT / 2021.05.15 0047 UTC
Wind: from the E (100 degrees) at 9 MPH (8 KT):0
Visibility: 8 mile(s):0
Sky conditions: mostly cloudy
Temperature: 77 F (25 C)
Dew Point: 77 F (25 C)
Relative Humidity: 100%
Pressure (altimeter): 30.06 in. Hg (1017 hPa)
ob: MMMA 150047Z 10008KT 8SM FEW015 SCT080 BKN200 25/25 A3006 RMK 8/138
cycle: 1

Station Type Date Time Source
MMMA TAF 2021/05/14 18:50 UTC NOAA

TAF MMMA 141742Z 1418/1518 09015KT P6SM BKN020
TEMPO 1510/1514 5SM HZ OVC010

Example: see airport list